createdAt,value
2022-08-08T00:00:51.997Z,1001.82
2022-08-08T00:01:08.326Z,1001.82
2022-08-08T00:02:30.805Z,1001.87
2022-08-08T00:03:36.502Z,1001.84
2022-08-08T00:04:55.601Z,1001.86
2022-08-08T00:06:07.460Z,1001.85
2022-08-08T00:07:13.277Z,1001.83
2022-08-08T00:08:17.911Z,1001.87
2022-08-08T00:09:22.350Z,1001.89
2022-08-08T00:10:29.182Z,1001.85
2022-08-08T00:12:05.862Z,1001.85
2022-08-08T00:13:01.745Z,1001.93
2022-08-08T00:14:48.929Z,1001.97
2022-08-08T00:15:56.244Z,1001.92
2022-08-08T00:16:55.484Z,1001.97
2022-08-08T00:18:05.012Z,1001.86
2022-08-08T00:19:09.203Z,1001.92
2022-08-08T00:20:15.128Z,1001.89
2022-08-08T00:21:24.811Z,1001.93
2022-08-08T00:22:32.440Z,1001.96
2022-08-08T00:23:51.263Z,1001.98
2022-08-08T00:24:59.652Z,1001.92
2022-08-08T00:26:04.008Z,1001.97
2022-08-08T00:27:08.478Z,1001.96
2022-08-08T00:28:34.025Z,1001.96
2022-08-08T00:29:47.259Z,1002
2022-08-08T00:32:15.905Z,1001.91
2022-08-08T00:32:34.850Z,1001.93
2022-08-08T00:34:17.750Z,1001.96
2022-08-08T00:35:04.709Z,1001.95
2022-08-08T00:36:15.144Z,1001.97
2022-08-08T00:37:45.611Z,1002.01
2022-08-08T00:38:56.066Z,1002
2022-08-08T00:41:08.449Z,1001.94
2022-08-08T00:41:44.928Z,1001.96
2022-08-08T00:42:49.568Z,1001.99
2022-08-08T00:44:01.708Z,1001.98
2022-08-08T00:45:25.410Z,1002
2022-08-08T00:46:56.305Z,1002.02
2022-08-08T00:48:06.795Z,1001.98
2022-08-08T00:49:24.973Z,1002.02
2022-08-08T00:50:33.913Z,1002.04
2022-08-08T00:51:43.102Z,1002.04
2022-08-08T00:52:52.045Z,1002.03
2022-08-08T00:54:13.906Z,1002.06
2022-08-08T00:55:36.438Z,1002.03
2022-08-08T00:56:45.067Z,1002.08
2022-08-08T00:57:59.104Z,1002
2022-08-08T00:59:04.908Z,1002.04
2022-08-08T01:00:11.006Z,1002.03
2022-08-08T01:01:37.895Z,1002.04
2022-08-08T01:04:00.383Z,1002.1
2022-08-08T01:04:05.888Z,1002.12
2022-08-08T01:05:29.002Z,1002.09
2022-08-08T01:06:37.924Z,1002.1
2022-08-08T01:07:56.857Z,1002.12
2022-08-08T01:09:35.278Z,1002.09
2022-08-08T01:10:27.321Z,1002.14
2022-08-08T01:11:32.006Z,1002.14
2022-08-08T01:12:36.551Z,1002.2
2022-08-08T01:13:58.282Z,1002.19
2022-08-08T01:15:07.840Z,1002.21
2022-08-08T01:16:17.328Z,1002.25
2022-08-08T01:17:52.299Z,1002.2
2022-08-08T01:18:55.020Z,1002.17
2022-08-08T01:20:04.733Z,1002.16
2022-08-08T01:21:09.494Z,1002.16
2022-08-08T01:22:35.227Z,1002.14
2022-08-08T01:23:55.728Z,1002.19
2022-08-08T01:25:01.662Z,1002.14
2022-08-08T01:26:13.459Z,1002.11
2022-08-08T01:27:32.853Z,1002.19
2022-08-08T01:28:42.294Z,1002.13
2022-08-08T01:30:03.246Z,1002.13
2022-08-08T01:32:02.830Z,1002.1
2022-08-08T01:32:32.645Z,1002.1
2022-08-08T01:33:54.520Z,1002.1
2022-08-08T01:35:01.000Z,1002.1
2022-08-08T01:36:12.380Z,1002.11
2022-08-08T01:37:51.230Z,1002.11
2022-08-08T01:38:35.994Z,1002.11
2022-08-08T01:39:43.365Z,1002.11
2022-08-08T01:40:47.786Z,1002.12
2022-08-08T01:41:52.811Z,1002.13
2022-08-08T01:42:59.525Z,1002.12
2022-08-08T01:44:03.872Z,1002.1
2022-08-08T01:45:14.290Z,1002.06
2022-08-08T01:46:19.947Z,1002.06
2022-08-08T01:47:58.995Z,1002.03
2022-08-08T01:48:48.552Z,1002.06
2022-08-08T01:50:01.156Z,1002.02
2022-08-08T01:51:29.974Z,1002.01
2022-08-08T01:53:07.101Z,1002.06
2022-08-08T01:54:16.550Z,1001.98
2022-08-08T01:56:25.933Z,1002.02
2022-08-08T01:56:47.463Z,1002.02
2022-08-08T01:58:11.431Z,1002.07
2022-08-08T01:59:18.248Z,1002.03
2022-08-08T02:00:27.808Z,1001.98
2022-08-08T02:01:54.438Z,1002.06
2022-08-08T02:02:57.292Z,1002.07
2022-08-08T02:04:02.113Z,1002.07
2022-08-08T02:05:07.132Z,1002.1
2022-08-08T02:06:32.018Z,1002.07
2022-08-08T02:07:49.825Z,1002.08
2022-08-08T02:08:56.419Z,1002.06
2022-08-08T02:10:12.575Z,1002.04
2022-08-08T02:11:53.348Z,1002.11
2022-08-08T02:12:39.947Z,1002.05
2022-08-08T02:13:55.789Z,1002
2022-08-08T02:15:03.805Z,1001.97
2022-08-08T02:16:20.589Z,1001.97
2022-08-08T02:17:22.068Z,1002.02
2022-08-08T02:18:26.545Z,1002
2022-08-08T02:19:57.681Z,1001.98
2022-08-08T02:21:08.822Z,1001.97
2022-08-08T02:22:17.629Z,1001.99
2022-08-08T02:23:32.074Z,1001.97
2022-08-08T02:24:36.909Z,1002.01
2022-08-08T02:25:49.123Z,1001.99
2022-08-08T02:27:01.500Z,1002.03
2022-08-08T02:28:08.020Z,1002.01
2022-08-08T02:29:21.174Z,1002.02
2022-08-08T02:30:25.894Z,1002.04
2022-08-08T02:31:59.706Z,1002.04
2022-08-08T02:32:54.158Z,1001.97
2022-08-08T02:34:14.934Z,1001.98
2022-08-08T02:35:22.684Z,1002.06
2022-08-08T02:36:30.154Z,1002.06
2022-08-08T02:37:51.537Z,1002.02
2022-08-08T02:39:40.194Z,1002.06
2022-08-08T02:40:22.733Z,1002.06
2022-08-08T02:41:58.337Z,1002.09
2022-08-08T02:44:32.875Z,1001.97
2022-08-08T02:44:36.385Z,1002
2022-08-08T02:45:54.259Z,1001.97
2022-08-08T02:47:02.738Z,1002.03
2022-08-08T02:48:09.314Z,1002.06
2022-08-08T02:49:48.424Z,1002.06
2022-08-08T02:50:47.199Z,1002.06
2022-08-08T02:52:10.554Z,1002.09
2022-08-08T02:53:18.062Z,1002.12
2022-08-08T02:54:28.080Z,1002.13
2022-08-08T02:55:39.050Z,1002.12
2022-08-08T02:56:43.227Z,1002.15
2022-08-08T02:57:52.502Z,1002.12
2022-08-08T02:58:56.721Z,1002.13
2022-08-08T03:00:27.418Z,1002.15
2022-08-08T03:01:40.137Z,1002.04
2022-08-08T03:02:51.007Z,1002.09
2022-08-08T03:05:01.981Z,1002.1
2022-08-08T03:05:19.009Z,1002.13
2022-08-08T03:06:35.742Z,1002.15
2022-08-08T03:07:57.847Z,1002.13
2022-08-08T03:09:03.406Z,1002.1
2022-08-08T03:10:31.906Z,1002.13
2022-08-08T03:12:01.367Z,1002.06
2022-08-08T03:13:33.780Z,1002.14
2022-08-08T03:15:55.415Z,1002.14
2022-08-08T03:16:05.034Z,1002.18
2022-08-08T03:17:09.591Z,1002.18
2022-08-08T03:18:15.555Z,1002.17
2022-08-08T03:19:25.291Z,1002.21
2022-08-08T03:20:31.104Z,1002.2
2022-08-08T03:21:55.048Z,1002.24
2022-08-08T03:23:06.513Z,1002.19
2022-08-08T03:24:15.757Z,1002.22
2022-08-08T03:25:36.230Z,1002.24
2022-08-08T03:26:43.734Z,1002.19
2022-08-08T03:27:57.733Z,1002.18
2022-08-08T03:29:15.120Z,1002.21
2022-08-08T03:30:22.683Z,1002.18
2022-08-08T03:32:06.825Z,1002.16
2022-08-08T03:33:07.750Z,1002.2
2022-08-08T03:34:14.734Z,1002.24
2022-08-08T03:35:20.291Z,1002.23
2022-08-08T03:36:31.632Z,1002.22
2022-08-08T03:38:00.448Z,1002.19
2022-08-08T03:39:16.213Z,1002.22
2022-08-08T03:40:32.396Z,1002.25
2022-08-08T03:42:13.545Z,1002.26
2022-08-08T03:43:16.315Z,1002.25
2022-08-08T03:44:26.300Z,1002.23
2022-08-08T03:46:03.556Z,1002.25
2022-08-08T03:46:54.979Z,1002.25
2022-08-08T03:47:59.333Z,1002.26
2022-08-08T03:49:56.230Z,1002.3
2022-08-08T03:50:27.778Z,1002.28
2022-08-08T03:51:51.110Z,1002.31
2022-08-08T03:52:58.766Z,1002.29
2022-08-08T03:54:03.238Z,1002.33
2022-08-08T03:55:55.415Z,1002.32
2022-08-08T03:56:32.773Z,1002.34
2022-08-08T03:58:32.538Z,1002.37
2022-08-08T03:59:01.141Z,1002.36
2022-08-08T04:00:17.308Z,1002.36
2022-08-08T04:02:13.365Z,1002.37
2022-08-08T04:02:53.015Z,1002.4
2022-08-08T04:04:02.580Z,1002.37
2022-08-08T04:05:10.681Z,1002.32
2022-08-08T04:06:14.911Z,1002.43
2022-08-08T04:07:21.935Z,1002.38
2022-08-08T04:08:34.997Z,1002.39
2022-08-08T04:09:59.228Z,1002.42
2022-08-08T04:11:20.791Z,1002.43
2022-08-08T04:12:29.396Z,1002.46
2022-08-08T04:14:02.939Z,1002.39
2022-08-08T04:14:57.502Z,1002.39
2022-08-08T04:16:08.924Z,1002.45
2022-08-08T04:17:46.869Z,1002.4
2022-08-08T04:18:49.047Z,1002.39
2022-08-08T04:19:53.133Z,1002.49
2022-08-08T04:20:58.328Z,1002.48
2022-08-08T04:22:03.048Z,1002.54
2022-08-08T04:23:08.158Z,1002.53
2022-08-08T04:24:29.137Z,1002.51
2022-08-08T04:25:39.816Z,1002.54
2022-08-08T04:26:58.842Z,1002.59
2022-08-08T04:28:35.720Z,1002.56
2022-08-08T04:29:33.507Z,1002.57
2022-08-08T04:30:45.294Z,1002.55
2022-08-08T04:32:00.822Z,1002.58
2022-08-08T04:33:10.582Z,1002.57
2022-08-08T04:34:20.269Z,1002.6
2022-08-08T04:35:24.440Z,1002.65
2022-08-08T04:36:32.780Z,1002.63
2022-08-08T04:37:37.021Z,1002.69
2022-08-08T04:38:57.093Z,1002.68
2022-08-08T04:40:12.585Z,1002.72
2022-08-08T04:41:22.116Z,1002.74
2022-08-08T04:42:26.540Z,1002.74
2022-08-08T04:43:48.839Z,1002.69
2022-08-08T04:44:55.031Z,1002.74
2022-08-08T04:45:59.460Z,1002.73
2022-08-08T04:47:03.922Z,1002.76
2022-08-08T04:48:08.504Z,1002.77
2022-08-08T04:49:14.164Z,1002.75
2022-08-08T04:50:38.012Z,1002.74
2022-08-08T04:51:57.532Z,1002.76
2022-08-08T04:53:53.007Z,1002.78
2022-08-08T04:54:42.074Z,1002.82
2022-08-08T04:55:57.239Z,1002.82
2022-08-08T04:57:01.268Z,1002.85
2022-08-08T04:58:12.876Z,1002.85
2022-08-08T04:59:17.039Z,1002.89
2022-08-08T05:00:27.693Z,1002.9
2022-08-08T05:01:47.922Z,1002.93
2022-08-08T05:02:53.649Z,1002.94
2022-08-08T05:04:12.930Z,1002.98
2022-08-08T05:05:45.044Z,1002.98
2022-08-08T05:06:40.143Z,1002.98
2022-08-08T05:07:50.263Z,1002.96
2022-08-08T05:09:02.113Z,1003
2022-08-08T05:10:13.328Z,1003.02
2022-08-08T05:11:26.516Z,1003.05
2022-08-08T05:12:59.763Z,1003.04
2022-08-08T05:14:03.394Z,1003.1
2022-08-08T05:15:13.879Z,1003.13
2022-08-08T05:16:47.657Z,1003.11
2022-08-08T05:17:54.821Z,1003.1
2022-08-08T05:18:59.896Z,1003.15
2022-08-08T05:20:15.433Z,1003.09
2022-08-08T05:21:19.918Z,1003.15
2022-08-08T05:22:24.950Z,1003.15
2022-08-08T05:23:41.022Z,1003.2
2022-08-08T05:24:49.748Z,1003.17
2022-08-08T05:26:00.684Z,1003.16
2022-08-08T05:27:04.904Z,1003.24
2022-08-08T05:28:09.354Z,1003.23
2022-08-08T05:29:15.848Z,1003.2
2022-08-08T05:30:28.918Z,1003.22
2022-08-08T05:32:02.664Z,1003.2
2022-08-08T05:33:03.173Z,1003.26
2022-08-08T05:34:12.804Z,1003.31
2022-08-08T05:35:17.266Z,1003.28
2022-08-08T05:36:28.841Z,1003.29
2022-08-08T05:37:52.390Z,1003.19
2022-08-08T05:38:59.631Z,1003.19
2022-08-08T05:40:04.606Z,1003.27
2022-08-08T05:41:09.680Z,1003.27
2022-08-08T05:42:14.131Z,1003.28
2022-08-08T05:43:38.995Z,1003.25
2022-08-08T05:44:45.609Z,1003.28
2022-08-08T05:46:04.312Z,1003.29
2022-08-08T05:47:21.488Z,1003.22
2022-08-08T05:48:35.999Z,1003.27
2022-08-08T05:49:56.159Z,1003.25
2022-08-08T05:51:16.153Z,1003.29
2022-08-08T05:52:35.973Z,1003.24
2022-08-08T05:54:26.448Z,1003.23
2022-08-08T05:55:14.368Z,1003.21
2022-08-08T05:56:20.912Z,1003.23
2022-08-08T05:57:57.919Z,1003.23
2022-08-08T05:59:04.187Z,1003.27
2022-08-08T06:00:25.440Z,1003.26
2022-08-08T06:01:50.921Z,1003.28
2022-08-08T06:02:53.908Z,1003.3
2022-08-08T06:03:58.701Z,1003.34
2022-08-08T06:05:24.475Z,1003.33
2022-08-08T06:06:35.200Z,1003.32
2022-08-08T06:07:46.879Z,1003.38
2022-08-08T06:09:42.217Z,1003.4
2022-08-08T06:10:25.088Z,1003.42
2022-08-08T06:11:29.248Z,1003.39
2022-08-08T06:12:33.694Z,1003.43
2022-08-08T06:13:49.685Z,1003.44
2022-08-08T06:14:58.152Z,1003.44
2022-08-08T06:16:03.226Z,1003.51
2022-08-08T06:17:07.650Z,1003.51
2022-08-08T06:18:22.706Z,1003.49
2022-08-08T06:19:33.169Z,1003.52
2022-08-08T06:20:40.478Z,1003.46
2022-08-08T06:21:57.857Z,1003.51
2022-08-08T06:23:03.464Z,1003.5
2022-08-08T06:24:23.372Z,1003.54
2022-08-08T06:26:36.371Z,1003.55
2022-08-08T06:26:56.699Z,1003.58
2022-08-08T06:28:02.626Z,1003.53
2022-08-08T06:29:26.943Z,1003.52
2022-08-08T06:30:30.908Z,1003.55
2022-08-08T06:31:52.785Z,1003.53
2022-08-08T06:33:02.537Z,1003.58
2022-08-08T06:34:26.852Z,1003.54
2022-08-08T06:36:04.056Z,1003.55
2022-08-08T06:36:54.528Z,1003.61
2022-08-08T06:37:58.949Z,1003.6
2022-08-08T06:39:07.456Z,1003.65
2022-08-08T06:40:17.087Z,1003.66
2022-08-08T06:41:21.974Z,1003.65
2022-08-08T06:42:28.589Z,1003.65
2022-08-08T06:43:35.974Z,1003.68
2022-08-08T06:44:42.958Z,1003.7
2022-08-08T06:45:48.529Z,1003.65
2022-08-08T06:46:52.969Z,1003.69
2022-08-08T06:48:06.309Z,1003.73
2022-08-08T06:49:14.458Z,1003.68
2022-08-08T06:50:33.270Z,1003.63
2022-08-08T06:51:57.839Z,1003.7
2022-08-08T06:53:17.489Z,1003.7
2022-08-08T06:54:24.555Z,1003.66
2022-08-08T06:55:42.211Z,1003.69
2022-08-08T06:56:53.130Z,1003.68
2022-08-08T06:58:05.193Z,1003.76
2022-08-08T06:59:12.834Z,1003.71
2022-08-08T07:00:32.037Z,1003.74
2022-08-08T07:02:18.442Z,1003.75
2022-08-08T07:03:05.547Z,1003.78
2022-08-08T07:04:36.161Z,1003.78
2022-08-08T07:05:41.866Z,1003.83
2022-08-08T07:06:46.013Z,1003.76
2022-08-08T07:07:50.438Z,1003.79
2022-08-08T07:08:56.324Z,1003.78
2022-08-08T07:10:01.414Z,1003.81
2022-08-08T07:11:08.122Z,1003.77
2022-08-08T07:12:18.286Z,1003.79
2022-08-08T07:13:25.764Z,1003.76
2022-08-08T07:14:32.250Z,1003.79
2022-08-08T07:16:04.246Z,1003.78
2022-08-08T07:17:08.990Z,1003.78
2022-08-08T07:18:35.269Z,1003.89
2022-08-08T07:19:38.041Z,1003.85
2022-08-08T07:20:52.328Z,1003.86
2022-08-08T07:22:11.817Z,1003.87
2022-08-08T07:23:24.020Z,1003.81
2022-08-08T07:24:28.285Z,1003.79
2022-08-08T07:25:37.761Z,1003.82
2022-08-08T07:26:42.023Z,1003.8
2022-08-08T07:28:02.952Z,1003.81
2022-08-08T07:30:00.718Z,1003.91
2022-08-08T07:30:30.992Z,1003.87
2022-08-08T07:31:36.931Z,1003.85
2022-08-08T07:32:41.658Z,1003.82
2022-08-08T07:33:59.126Z,1003.89
2022-08-08T07:35:09.983Z,1003.83
2022-08-08T07:36:16.203Z,1003.85
2022-08-08T07:37:21.395Z,1003.9
2022-08-08T07:38:26.681Z,1003.91
2022-08-08T07:39:56.334Z,1003.86
2022-08-08T07:40:58.806Z,1003.88
2022-08-08T07:42:12.578Z,1003.9
2022-08-08T07:43:32.296Z,1003.85
2022-08-08T07:44:46.134Z,1003.83
2022-08-08T07:46:18.234Z,1003.86
2022-08-08T07:47:14.160Z,1003.9
2022-08-08T07:48:23.849Z,1003.9
2022-08-08T07:49:28.194Z,1003.89
2022-08-08T07:50:32.685Z,1003.94
2022-08-08T07:51:53.341Z,1003.92
2022-08-08T07:52:58.085Z,1003.89
2022-08-08T07:54:05.260Z,1003.9
2022-08-08T07:55:09.520Z,1003.94
2022-08-08T07:56:15.591Z,1003.86
2022-08-08T07:57:21.428Z,1003.9
2022-08-08T07:58:29.249Z,1003.92
2022-08-08T07:59:38.209Z,1003.92
2022-08-08T08:00:42.639Z,1003.95
2022-08-08T08:02:33.792Z,1003.91
2022-08-08T08:03:24.257Z,1003.97
2022-08-08T08:04:41.457Z,1003.97
2022-08-08T08:05:53.575Z,1003.96
2022-08-08T08:06:57.914Z,1003.95
2022-08-08T08:08:03.498Z,1003.91
2022-08-08T08:09:08.671Z,1003.9
2022-08-08T08:10:13.506Z,1003.99
2022-08-08T08:11:22.550Z,1003.91
2022-08-08T08:12:43.126Z,1003.94
2022-08-08T08:14:06.234Z,1003.95
2022-08-08T08:15:16.124Z,1003.95
2022-08-08T08:16:23.607Z,1003.93
2022-08-08T08:17:47.514Z,1003.95
2022-08-08T08:18:56.994Z,1003.98
2022-08-08T08:20:01.564Z,1003.94
2022-08-08T08:21:19.247Z,1003.92
2022-08-08T08:22:34.089Z,1003.93
2022-08-08T08:23:50.888Z,1003.94
2022-08-08T08:24:57.400Z,1003.88
2022-08-08T08:26:04.179Z,1003.88
2022-08-08T08:27:09.789Z,1003.88
2022-08-08T08:28:26.075Z,1003.91
2022-08-08T08:29:30.604Z,1003.91
2022-08-08T08:30:35.269Z,1003.91
2022-08-08T08:31:42.601Z,1003.95
2022-08-08T08:32:52.447Z,1003.91
2022-08-08T08:33:57.447Z,1003.92
2022-08-08T08:35:05.313Z,1003.96
2022-08-08T08:36:22.061Z,1003.93
2022-08-08T08:37:32.912Z,1003.97
2022-08-08T08:38:50.233Z,1003.86
2022-08-08T08:40:03.473Z,1003.9
2022-08-08T08:41:22.311Z,1003.88
2022-08-08T08:42:36.918Z,1003.91
2022-08-08T08:43:45.380Z,1003.93
2022-08-08T08:44:50.359Z,1003.9
2022-08-08T08:46:03.517Z,1003.9
2022-08-08T08:47:13.144Z,1003.93
2022-08-08T08:48:20.196Z,1003.87
2022-08-08T08:49:34.787Z,1003.9
2022-08-08T08:50:41.325Z,1003.89
2022-08-08T08:51:52.073Z,1003.87
2022-08-08T08:53:26.794Z,1003.91
2022-08-08T08:54:25.839Z,1003.85
2022-08-08T08:55:40.299Z,1003.87
2022-08-08T08:56:46.556Z,1003.94
2022-08-08T08:57:50.905Z,1003.91
2022-08-08T08:58:55.348Z,1003.91
2022-08-08T09:00:17.246Z,1003.92
2022-08-08T09:01:24.213Z,1003.92
2022-08-08T09:02:28.658Z,1003.94
2022-08-08T09:03:50.610Z,1003.91
2022-08-08T09:04:57.651Z,1003.91
2022-08-08T09:06:01.993Z,1003.92
2022-08-08T09:07:13.850Z,1003.97
2022-08-08T09:08:23.164Z,1004.02
2022-08-08T09:09:47.594Z,1003.97
2022-08-08T09:10:51.418Z,1003.9
2022-08-08T09:12:08.380Z,1003.95
2022-08-08T09:13:16.899Z,1003.88
2022-08-08T09:14:26.257Z,1003.86
2022-08-08T09:15:43.397Z,1003.89
2022-08-08T09:16:49.554Z,1003.84
2022-08-08T09:17:58.036Z,1003.89
2022-08-08T09:19:03.831Z,1003.88
2022-08-08T09:21:55.538Z,1003.89
2022-08-08T09:21:55.579Z,1003.83
2022-08-08T09:22:59.364Z,1003.87
2022-08-08T09:24:05.492Z,1003.82
2022-08-08T09:25:15.339Z,1003.75
2022-08-08T09:26:21.813Z,1003.81
2022-08-08T09:27:42.365Z,1003.77
2022-08-08T09:28:50.005Z,1003.74
2022-08-08T09:29:57.667Z,1003.81
2022-08-08T09:31:13.298Z,1003.74
2022-08-08T09:32:19.782Z,1003.76
2022-08-08T09:33:55.282Z,1003.75
2022-08-08T09:34:51.382Z,1003.71
2022-08-08T09:35:58.857Z,1003.7
2022-08-08T09:37:29.423Z,1003.68
2022-08-08T09:38:28.803Z,1003.72
2022-08-08T09:39:37.044Z,1003.61
2022-08-08T09:40:57.778Z,1003.58
2022-08-08T09:42:20.339Z,1003.57
2022-08-08T09:44:05.921Z,1003.65
2022-08-08T09:44:49.579Z,1003.6
2022-08-08T09:46:06.518Z,1003.61
2022-08-08T09:48:05.393Z,1003.52
2022-08-08T09:48:50.064Z,1003.56
2022-08-08T09:49:54.987Z,1003.54
2022-08-08T09:50:59.585Z,1003.54
2022-08-08T09:52:54.297Z,1003.58
2022-08-08T09:53:54.579Z,1003.55
2022-08-08T09:54:51.665Z,1003.55
2022-08-08T09:56:09.517Z,1003.53
2022-08-08T09:57:22.413Z,1003.54
2022-08-08T09:58:45.316Z,1003.6
2022-08-08T10:01:58.947Z,1003.57
2022-08-08T10:02:40.578Z,1003.55
2022-08-08T10:03:44.867Z,1003.51
2022-08-08T10:04:53.133Z,1003.55
2022-08-08T10:05:57.759Z,1003.57
2022-08-08T10:07:10.685Z,1003.51
2022-08-08T10:08:22.720Z,1003.5
2022-08-08T10:09:29.332Z,1003.48
2022-08-08T10:10:37.067Z,1003.51
2022-08-08T10:12:22.988Z,1003.46
2022-08-08T10:13:15.336Z,1003.42
2022-08-08T10:14:35.591Z,1003.4
2022-08-08T10:15:59.543Z,1003.46
2022-08-08T10:17:57.943Z,1003.42
2022-08-08T10:18:30.982Z,1003.34
2022-08-08T10:19:57.509Z,1003.36
2022-08-08T10:21:22.552Z,1003.36
2022-08-08T10:22:24.233Z,1003.4
2022-08-08T10:23:44.927Z,1003.37
2022-08-08T10:24:53.148Z,1003.32
2022-08-08T10:25:57.979Z,1003.33
2022-08-08T10:27:02.402Z,1003.37
2022-08-08T10:28:15.656Z,1003.36
2022-08-08T10:29:38.022Z,1003.36
2022-08-08T10:30:57.645Z,1003.35
2022-08-08T10:32:03.649Z,1003.34
2022-08-08T10:33:12.544Z,1003.39
2022-08-08T10:34:21.794Z,1003.34
2022-08-08T10:36:06.378Z,1003.32
2022-08-08T10:36:50.619Z,1003.31
2022-08-08T10:37:55.012Z,1003.25
2022-08-08T10:39:01.352Z,1003.29
2022-08-08T10:40:08.124Z,1003.28
2022-08-08T10:41:13.732Z,1003.24
2022-08-08T10:42:27.249Z,1003.23
2022-08-08T10:43:36.615Z,1003.15
2022-08-08T10:44:40.879Z,1003.18
2022-08-08T10:45:59.091Z,1003.15
2022-08-08T10:47:05.310Z,1003.15
2022-08-08T10:48:09.656Z,1003.15
2022-08-08T10:50:00.936Z,1003.15
2022-08-08T10:50:42.821Z,1003.1
2022-08-08T10:51:54.414Z,1003.13
2022-08-08T10:53:00.372Z,1003.08
2022-08-08T10:54:07.534Z,1003.1
2022-08-08T10:55:39.073Z,1003.14
2022-08-08T10:56:35.872Z,1003.14
2022-08-08T10:57:53.550Z,1003.11
2022-08-08T10:58:57.672Z,1003.09
2022-08-08T11:00:02.208Z,1003.09
2022-08-08T11:01:15.979Z,1003.07
2022-08-08T11:02:28.920Z,1003.06
2022-08-08T11:03:52.670Z,1003.08
2022-08-08T11:04:57.130Z,1003.08
2022-08-08T11:06:01.587Z,1003
2022-08-08T11:07:15.140Z,1003.06
2022-08-08T11:08:39.198Z,1003.1
2022-08-08T11:09:45.375Z,1003.01
2022-08-08T11:10:50.674Z,1002.98
2022-08-08T11:12:13.009Z,1002.98
2022-08-08T11:13:31.849Z,1003
2022-08-08T11:14:42.314Z,1002.97
2022-08-08T11:16:07.887Z,1002.96
2022-08-08T11:17:16.051Z,1002.94
2022-08-08T11:18:30.780Z,1002.86
2022-08-08T11:19:34.980Z,1002.84
2022-08-08T11:20:39.481Z,1002.84
2022-08-08T11:21:56.421Z,1002.87
2022-08-08T11:23:00.805Z,1002.84
2022-08-08T11:24:11.475Z,1002.82
2022-08-08T11:25:16.784Z,1002.86
2022-08-08T11:26:28.417Z,1002.88
2022-08-08T11:27:37.740Z,1002.89
2022-08-08T11:28:44.490Z,1002.84
2022-08-08T11:30:18.520Z,1002.82
2022-08-08T11:31:12.802Z,1002.78
2022-08-08T11:32:17.357Z,1002.73
2022-08-08T11:33:52.088Z,1002.77
2022-08-08T11:35:24.614Z,1002.7
2022-08-08T11:36:13.758Z,1002.76
2022-08-08T11:37:39.721Z,1002.78
2022-08-08T11:38:55.923Z,1002.74
2022-08-08T11:40:04.159Z,1002.7
2022-08-08T11:41:08.447Z,1002.68
2022-08-08T11:42:15.575Z,1002.68
2022-08-08T11:43:38.700Z,1002.66
2022-08-08T11:44:35.221Z,1002.66
2022-08-08T11:46:09.481Z,1002.66
2022-08-08T11:47:17.607Z,1002.65
2022-08-08T11:48:28.179Z,1002.65
2022-08-08T11:49:32.442Z,1002.62
2022-08-08T11:50:39.366Z,1002.64
2022-08-08T11:51:54.330Z,1002.57
2022-08-08T11:52:59.228Z,1002.6
2022-08-08T11:54:04.757Z,1002.55
2022-08-08T11:55:15.838Z,1002.59
2022-08-08T11:56:20.201Z,1002.58
2022-08-08T11:57:35.460Z,1002.53
2022-08-08T11:58:40.301Z,1002.55
2022-08-08T12:00:00.837Z,1002.58
2022-08-08T12:01:17.515Z,1002.61
2022-08-08T12:02:34.804Z,1002.49
2022-08-08T12:03:39.230Z,1002.47
2022-08-08T12:04:44.746Z,1002.51
2022-08-08T12:05:49.771Z,1002.52
2022-08-08T12:06:55.604Z,1002.46
2022-08-08T12:08:00.074Z,1002.47
2022-08-08T12:09:06.400Z,1002.47
2022-08-08T12:10:11.444Z,1002.49
2022-08-08T12:11:29.284Z,1002.45
2022-08-08T12:12:34.094Z,1002.41
2022-08-08T12:14:03.152Z,1002.38
2022-08-08T12:15:05.274Z,1002.43
2022-08-08T12:16:16.462Z,1002.39
2022-08-08T12:17:21.713Z,1002.43
2022-08-08T12:18:26.091Z,1002.44
2022-08-08T12:19:51.469Z,1002.46
2022-08-08T12:20:55.125Z,1002.44
2022-08-08T12:22:20.494Z,1002.42
2022-08-08T12:23:40.834Z,1002.42
2022-08-08T12:24:56.920Z,1002.43
2022-08-08T12:26:00.973Z,1002.43
2022-08-08T12:27:07.819Z,1002.39
2022-08-08T12:28:16.361Z,1002.39
2022-08-08T12:29:36.430Z,1002.4
2022-08-08T12:30:35.009Z,1002.44
2022-08-08T12:31:54.554Z,1002.4
2022-08-08T12:32:58.756Z,1002.46
2022-08-08T12:34:05.003Z,1002.42
2022-08-08T12:35:18.910Z,1002.42
2022-08-08T12:36:34.782Z,1002.4
2022-08-08T12:38:01.775Z,1002.37
2022-08-08T12:39:09.290Z,1002.42
2022-08-08T12:40:25.072Z,1002.35
2022-08-08T12:41:57.614Z,1002.4
2022-08-08T12:42:53.971Z,1002.42
2022-08-08T12:44:02.625Z,1002.39
2022-08-08T12:45:54.553Z,1002.31
2022-08-08T12:46:30.875Z,1002.37
2022-08-08T12:47:58.850Z,1002.34
2022-08-08T12:49:22.415Z,1002.3
2022-08-08T12:50:26.141Z,1002.32
2022-08-08T12:51:40.180Z,1002.28
2022-08-08T12:52:50.063Z,1002.34
2022-08-08T12:53:59.770Z,1002.33
2022-08-08T12:55:32.041Z,1002.33
2022-08-08T12:56:28.762Z,1002.27
2022-08-08T12:57:49.717Z,1002.29
2022-08-08T12:58:59.150Z,1002.32
2022-08-08T13:00:18.357Z,1002.25
2022-08-08T13:01:36.304Z,1002.25
2022-08-08T13:02:53.468Z,1002.23
2022-08-08T13:04:03.925Z,1002.22
2022-08-08T13:05:26.112Z,1002.23
2022-08-08T13:06:33.696Z,1002.14
2022-08-08T13:08:02.659Z,1002.2
2022-08-08T13:09:03.088Z,1002.16
2022-08-08T13:10:11.277Z,1002.15
2022-08-08T13:11:16.191Z,1002.12
2022-08-08T13:12:34.387Z,1002.15
2022-08-08T13:13:39.311Z,1002.1
2022-08-08T13:14:53.991Z,1002.23
2022-08-08T13:15:58.129Z,1002.15
2022-08-08T13:17:02.640Z,1002.09
2022-08-08T13:18:22.137Z,1002.03
2022-08-08T13:19:50.097Z,1002.1
2022-08-08T13:20:52.622Z,1001.93
2022-08-08T13:22:07.070Z,1002.03
2022-08-08T13:23:30.410Z,1002.04
2022-08-08T13:24:49.172Z,1001.99
2022-08-08T13:27:15.375Z,1001.96
2022-08-08T13:28:27.363Z,1001.94
2022-08-08T13:29:41.203Z,1001.94
2022-08-08T13:30:49.807Z,1001.92
2022-08-08T13:31:54.057Z,1001.93
2022-08-08T13:32:59.579Z,1001.89
2022-08-08T13:34:13.072Z,1001.86
2022-08-08T13:35:38.480Z,1001.86
2022-08-08T13:36:44.874Z,1001.86
2022-08-08T13:38:06.003Z,1001.85
2022-08-08T13:39:17.884Z,1001.91
2022-08-08T13:40:28.995Z,1001.88
2022-08-08T13:41:53.694Z,1001.88
2022-08-08T13:42:58.594Z,1001.88
2022-08-08T13:44:05.143Z,1001.82
2022-08-08T13:45:15.062Z,1001.81
2022-08-08T13:46:29.876Z,1001.74
2022-08-08T13:47:34.307Z,1001.72
2022-08-08T13:48:44.103Z,1001.74
2022-08-08T13:50:38.022Z,1001.75
2022-08-08T13:51:34.356Z,1001.75
2022-08-08T13:52:39.354Z,1001.71
2022-08-08T13:53:59.939Z,1001.64
2022-08-08T13:55:06.126Z,1001.61
2022-08-08T13:56:12.684Z,1001.59
2022-08-08T13:57:17.453Z,1001.62
2022-08-08T13:58:21.996Z,1001.63
2022-08-08T13:59:33.417Z,1001.64
2022-08-08T14:00:37.628Z,1001.68
2022-08-08T14:02:00.397Z,1001.72
2022-08-08T14:03:47.504Z,1001.7
2022-08-08T14:04:30.272Z,1001.65
2022-08-08T14:05:34.914Z,1001.82
2022-08-08T14:06:40.809Z,1001.7
2022-08-08T14:08:01.770Z,1001.65
2022-08-08T14:09:25.639Z,1001.62
2022-08-08T14:10:39.741Z,1001.65
2022-08-08T14:11:44.024Z,1001.61
2022-08-08T14:12:48.538Z,1001.67
2022-08-08T14:14:06.053Z,1001.59
2022-08-08T14:15:13.274Z,1001.63
2022-08-08T14:16:20.078Z,1001.61
2022-08-08T14:17:58.720Z,1001.63
2022-08-08T14:18:54.911Z,1001.56
2022-08-08T14:20:14.989Z,1001.61
2022-08-08T14:21:22.924Z,1001.58
2022-08-08T14:22:27.292Z,1001.63
2022-08-08T14:24:03.597Z,1001.62
2022-08-08T14:25:00.238Z,1001.57
2022-08-08T14:26:11.885Z,1001.55
2022-08-08T14:27:16.333Z,1001.52
2022-08-08T14:28:29.631Z,1001.5
2022-08-08T14:29:40.618Z,1001.48
2022-08-08T14:30:50.421Z,1001.49
2022-08-08T14:32:15.960Z,1001.57
2022-08-08T14:33:25.945Z,1001.56
2022-08-08T14:34:30.154Z,1001.54
2022-08-08T14:35:36.975Z,1001.61
2022-08-08T14:36:53.692Z,1001.6
2022-08-08T14:38:33.813Z,1001.52
2022-08-08T14:39:47.749Z,1001.55
2022-08-08T14:40:45.848Z,1001.51
2022-08-08T14:41:55.302Z,1001.47
2022-08-08T14:43:22.335Z,1001.51
2022-08-08T14:44:35.757Z,1001.47